createdAt,value
2022-08-04T00:00:06.657Z,25.27
2022-08-04T00:02:48.284Z,25.26
2022-08-04T00:05:28.206Z,25.28
2022-08-04T00:08:05.496Z,25.26
2022-08-04T00:10:35.915Z,25.23
2022-08-04T00:13:05.449Z,25.22
2022-08-04T00:15:34.724Z,25.19
2022-08-04T00:18:05.720Z,25.20
2022-08-04T00:20:35.496Z,25.16
2022-08-04T00:23:03.891Z,24.90
2022-08-04T00:25:31.800Z,25.12
2022-08-04T00:28:01.897Z,25.10
2022-08-04T00:30:29.751Z,25.11
2022-08-04T00:32:58.948Z,25.07
2022-08-04T00:35:29.373Z,25.13
2022-08-04T00:37:58.150Z,25.14
2022-08-04T00:40:33.895Z,25.15
2022-08-04T00:43:14.130Z,25.14
2022-08-04T00:46:29.699Z,25.07
2022-08-04T00:49:21.281Z,25.08
2022-08-04T00:52:32.599Z,25.01
2022-08-04T00:54:57.091Z,24.96
2022-08-04T00:57:34.071Z,24.94
2022-08-04T01:00:10.592Z,24.90
2022-08-04T01:02:49.529Z,24.86
2022-08-04T01:05:29.516Z,24.86
2022-08-04T01:08:27.334Z,24.88
2022-08-04T01:11:05.320Z,24.88
2022-08-04T01:14:09.642Z,24.88
2022-08-04T01:16:47.842Z,24.81
2022-08-04T01:19:37.551Z,24.69
2022-08-04T01:22:19.658Z,24.79
2022-08-04T01:25:08.172Z,24.76
2022-08-04T01:28:01.672Z,24.79
2022-08-04T01:30:33.650Z,24.81
2022-08-04T01:33:04.403Z,24.80
2022-08-04T01:35:47.725Z,24.75
2022-08-04T01:38:21.572Z,24.68
2022-08-04T01:40:53.363Z,24.64
2022-08-04T01:43:21.828Z,24.61
2022-08-04T01:45:58.450Z,24.54
2022-08-04T01:48:27.606Z,24.53
2022-08-04T01:50:59.811Z,24.51
2022-08-04T01:53:32.603Z,24.46
2022-08-04T01:56:02.341Z,24.42
2022-08-04T01:58:31.232Z,24.36
2022-08-04T02:01:08.204Z,24.38
2022-08-04T02:04:20.078Z,24.37
2022-08-04T02:06:33.495Z,24.34
2022-08-04T02:09:12.769Z,24.35
2022-08-04T02:11:42.649Z,24.31
2022-08-04T02:14:40.544Z,24.30
2022-08-04T02:17:13.466Z,24.35
2022-08-04T02:20:05.012Z,24.36
2022-08-04T02:22:35.398Z,24.33
2022-08-04T02:25:08.042Z,24.31
2022-08-04T02:27:59.276Z,24.29
2022-08-04T02:30:34.779Z,24.23
2022-08-04T02:33:08.596Z,24.22
2022-08-04T02:35:39.650Z,24.22
2022-08-04T02:38:17.770Z,24.23
2022-08-04T02:41:00.330Z,24.22
2022-08-04T02:43:51.229Z,24.20
2022-08-04T02:46:20.204Z,24.16
2022-08-04T02:48:51.428Z,24.15
2022-08-04T02:51:24.955Z,24.12
2022-08-04T02:53:57.323Z,24.09
2022-08-04T02:56:26.479Z,24.08
2022-08-04T02:58:57.507Z,24.06
2022-08-04T03:01:25.767Z,24.08
2022-08-04T03:04:24.376Z,24.10
2022-08-04T03:07:41.504Z,24.09
2022-08-04T03:10:25.178Z,24.09
2022-08-04T03:13:11.831Z,24.07
2022-08-04T03:16:01.032Z,24.07
2022-08-04T03:19:08.049Z,24.03
2022-08-04T03:22:12.255Z,24.04
2022-08-04T03:25:08.331Z,24.05
2022-08-04T03:28:13.686Z,23.99
2022-08-04T03:30:59.536Z,23.97
2022-08-04T03:33:50.916Z,23.97
2022-08-04T03:37:01.457Z,23.91
2022-08-04T03:39:53.639Z,23.90
2022-08-04T03:43:06.491Z,23.89
2022-08-04T03:46:15.875Z,23.85
2022-08-04T03:49:31.095Z,23.80
2022-08-04T03:52:25.217Z,23.82
2022-08-04T03:55:23.675Z,23.81
2022-08-04T03:58:30.633Z,23.78
2022-08-04T04:01:13.472Z,23.82
2022-08-04T04:04:16.515Z,23.80
2022-08-04T04:07:04.644Z,23.66
2022-08-04T04:10:12.225Z,23.76
2022-08-04T04:13:04.274Z,23.82
2022-08-04T04:16:00.937Z,23.78
2022-08-04T04:18:48.397Z,23.77
2022-08-04T04:21:30.372Z,23.75
2022-08-04T04:24:12.639Z,23.74
2022-08-04T04:26:54.536Z,23.72
2022-08-04T04:29:39.476Z,23.74
2022-08-04T04:32:22.199Z,23.72
2022-08-04T04:35:03.980Z,23.73
2022-08-04T04:37:47.652Z,23.75
2022-08-04T04:40:26.758Z,23.73
2022-08-04T04:43:17.224Z,23.69
2022-08-04T04:45:56.072Z,23.69
2022-08-04T04:48:34.897Z,23.72
2022-08-04T04:51:11.460Z,23.75
2022-08-04T04:53:52.147Z,23.65
2022-08-04T04:56:36.067Z,23.76
2022-08-04T04:59:07.548Z,23.71
2022-08-04T05:02:19.556Z,23.74
2022-08-04T05:05:17.523Z,23.73
2022-08-04T05:08:42.727Z,23.71
2022-08-04T05:11:34.407Z,23.70
2022-08-04T05:14:38.146Z,23.62
2022-08-04T05:17:02.705Z,23.75
2022-08-04T05:19:41.015Z,23.74
2022-08-04T05:22:14.799Z,23.80
2022-08-04T05:24:47.748Z,23.84
2022-08-04T05:27:21.607Z,23.89
2022-08-04T05:29:54.157Z,23.83
2022-08-04T05:32:32.699Z,23.91
2022-08-04T05:35:06.908Z,23.92
2022-08-04T05:37:38.107Z,24.00
2022-08-04T05:40:08.536Z,24.01
2022-08-04T05:42:39.651Z,24.02
2022-08-04T05:45:14.927Z,24.05
2022-08-04T05:47:44.112Z,24.07
2022-08-04T05:50:14.474Z,24.09
2022-08-04T05:52:44.056Z,24.12
2022-08-04T05:55:13.643Z,24.15
2022-08-04T05:58:03.237Z,24.20
2022-08-04T06:00:40.686Z,24.22
2022-08-04T06:03:11.640Z,24.23
2022-08-04T06:05:43.906Z,24.26
2022-08-04T06:08:13.687Z,24.29
2022-08-04T06:10:47.180Z,24.37
2022-08-04T06:13:47.678Z,24.38
2022-08-04T06:16:17.988Z,24.41
2022-08-04T06:20:03.366Z,24.41
2022-08-04T06:21:56.578Z,24.46
2022-08-04T06:24:30.663Z,24.49
2022-08-04T06:27:00.721Z,24.53
2022-08-04T06:29:34.619Z,24.54
2022-08-04T06:32:27.708Z,24.63
2022-08-04T06:35:02.624Z,24.60
2022-08-04T06:37:42.086Z,24.66
2022-08-04T06:40:31.597Z,24.68
2022-08-04T06:43:02.286Z,24.69
2022-08-04T06:45:31.204Z,24.79
2022-08-04T06:48:01.217Z,24.83
2022-08-04T06:51:26.317Z,24.90
2022-08-04T06:53:18.679Z,24.96
2022-08-04T06:55:51.325Z,25.00
2022-08-04T06:58:21.638Z,25.01
2022-08-04T07:00:49.835Z,25.04
2022-08-04T07:03:19.814Z,25.10
2022-08-04T07:05:48.385Z,25.15
2022-08-04T07:08:18.176Z,25.17
2022-08-04T07:10:46.643Z,25.18
2022-08-04T07:13:14.730Z,25.22
2022-08-04T07:15:44.952Z,25.24
2022-08-04T07:18:15.084Z,25.28
2022-08-04T07:20:43.904Z,25.35
2022-08-04T07:23:13.766Z,25.38
2022-08-04T07:26:00.127Z,25.39
2022-08-04T07:28:32.252Z,25.37
2022-08-04T07:31:00.175Z,25.39
2022-08-04T07:33:29.453Z,25.39
2022-08-04T07:36:05.854Z,25.41
2022-08-04T07:38:48.776Z,25.43
2022-08-04T07:41:38.013Z,25.48
2022-08-04T07:44:06.950Z,25.48
2022-08-04T07:46:35.169Z,25.20
2022-08-04T07:49:03.505Z,25.39
2022-08-04T07:51:33.047Z,25.52
2022-08-04T07:54:03.886Z,25.52
2022-08-04T07:56:33.850Z,25.53
2022-08-04T07:59:03.358Z,25.57
2022-08-04T08:01:32.140Z,25.71
2022-08-04T08:04:01.699Z,25.78
2022-08-04T08:06:33.213Z,25.78
2022-08-04T08:09:13.446Z,25.82
2022-08-04T08:12:36.981Z,25.83
2022-08-04T08:14:32.274Z,25.80
2022-08-04T08:17:02.566Z,25.81
2022-08-04T08:19:31.026Z,25.86
2022-08-04T08:22:00.766Z,25.89
2022-08-04T08:24:29.649Z,25.89
2022-08-04T08:27:00.198Z,25.97
2022-08-04T08:29:29.893Z,25.95
2022-08-04T08:32:02.767Z,26.01
2022-08-04T08:34:34.119Z,26.06
2022-08-04T08:37:05.973Z,26.12
2022-08-04T08:39:39.782Z,26.22
2022-08-04T08:42:43.415Z,26.22
2022-08-04T08:45:49.912Z,26.25
2022-08-04T08:48:31.698Z,26.37
2022-08-04T08:51:22.373Z,26.38
2022-08-04T08:54:05.651Z,26.53
2022-08-04T08:56:42.116Z,26.55
2022-08-04T08:59:28.516Z,26.58
2022-08-04T09:02:21.059Z,26.63
2022-08-04T09:05:09.276Z,26.60
2022-08-04T09:07:54.813Z,26.63
2022-08-04T09:10:33.073Z,26.79
2022-08-04T09:13:06.800Z,26.79
2022-08-04T09:15:38.499Z,26.85
2022-08-04T09:18:11.840Z,27.06
2022-08-04T09:20:46.841Z,27.31
2022-08-04T09:23:24.925Z,27.46
2022-08-04T09:26:00.417Z,27.69
2022-08-04T09:28:53.175Z,27.77
2022-08-04T09:31:25.472Z,27.89
2022-08-04T09:34:03.708Z,27.96
2022-08-04T09:36:37.122Z,27.96
2022-08-04T09:39:11.253Z,27.80
2022-08-04T09:41:52.565Z,27.78
2022-08-04T09:44:49.133Z,27.75
2022-08-04T09:47:23.231Z,27.86
2022-08-04T09:49:59.033Z,27.91
2022-08-04T09:52:33.069Z,28.00
2022-08-04T09:55:10.423Z,28.17
2022-08-04T09:57:53.208Z,28.35
2022-08-04T10:00:41.044Z,28.43
2022-08-04T10:03:16.007Z,28.54
2022-08-04T10:06:01.035Z,28.49
2022-08-04T10:08:57.284Z,28.73
2022-08-04T10:11:55.384Z,28.92
2022-08-04T10:14:38.638Z,29.13
2022-08-04T10:17:21.408Z,29.10
2022-08-04T10:19:58.171Z,29.19
2022-08-04T10:22:40.647Z,29.39
2022-08-04T10:26:02.693Z,29.68
2022-08-04T10:28:18.322Z,29.76
2022-08-04T10:30:55.752Z,29.70
2022-08-04T10:33:26.839Z,29.63
2022-08-04T10:36:02.501Z,29.66
2022-08-04T10:38:32.416Z,29.59
2022-08-04T10:41:07.119Z,29.58
2022-08-04T10:43:45.386Z,29.53
2022-08-04T10:46:17.752Z,29.80
2022-08-04T10:48:57.850Z,30.21
2022-08-04T10:51:57.311Z,30.67
2022-08-04T10:54:30.385Z,30.74
2022-08-04T10:57:03.882Z,30.71
2022-08-04T10:59:40.394Z,31.25
2022-08-04T11:02:20.543Z,31.77
2022-08-04T11:04:53.133Z,32.09
2022-08-04T11:07:23.509Z,32.27
2022-08-04T11:09:52.818Z,32.51
2022-08-04T11:12:25.458Z,32.75
2022-08-04T11:14:59.705Z,33.13
2022-08-04T11:17:30.389Z,33.62
2022-08-04T11:20:34.782Z,33.28
2022-08-04T11:23:07.950Z,33.17
2022-08-04T11:25:51.417Z,33.17
2022-08-04T11:28:26.631Z,32.96
2022-08-04T11:31:00.182Z,32.61
2022-08-04T11:33:37.125Z,32.20
2022-08-04T11:36:15.714Z,31.81
2022-08-04T11:38:52.144Z,31.69
2022-08-04T11:41:27.649Z,31.62
2022-08-04T11:44:03.233Z,31.48
2022-08-04T11:46:40.461Z,31.42
2022-08-04T11:49:13.144Z,31.46
2022-08-04T11:51:42.227Z,31.65
2022-08-04T11:54:13.104Z,31.81
2022-08-04T11:56:41.036Z,31.51
2022-08-04T11:59:09.271Z,31.22
2022-08-04T12:01:51.749Z,30.96
2022-08-04T12:04:28.978Z,30.76
2022-08-04T12:07:28.908Z,30.65
2022-08-04T12:10:04.260Z,30.58
2022-08-04T12:12:40.305Z,30.61
2022-08-04T12:15:17.708Z,30.63
2022-08-04T12:17:53.998Z,30.67
2022-08-04T12:20:32.044Z,30.80
2022-08-04T12:23:18.521Z,30.74
2022-08-04T12:25:56.199Z,30.61
2022-08-04T12:28:52.586Z,30.51
2022-08-04T12:31:26.843Z,30.48
2022-08-04T12:34:05.951Z,30.46
2022-08-04T12:36:41.323Z,30.40
2022-08-04T12:39:14.004Z,30.29
2022-08-04T12:41:48.877Z,30.27
2022-08-04T12:44:33.312Z,30.20
2022-08-04T12:47:27.071Z,30.14
2022-08-04T12:50:01.797Z,30.16
2022-08-04T12:52:59.051Z,30.44
2022-08-04T12:55:25.124Z,30.42
2022-08-04T12:57:56.049Z,30.58
2022-08-04T13:00:29.754Z,30.93
2022-08-04T13:03:10.215Z,31.11
2022-08-04T13:05:41.120Z,31.08
2022-08-04T13:08:10.028Z,31.16
2022-08-04T13:10:40.531Z,31.02
2022-08-04T13:13:16.869Z,30.92
2022-08-04T13:15:56.487Z,30.82
2022-08-04T13:18:30.006Z,30.85
2022-08-04T13:21:20.467Z,30.68
2022-08-04T13:24:10.858Z,30.64
2022-08-04T13:26:55.450Z,30.98
2022-08-04T13:30:00.154Z,30.97
2022-08-04T13:32:23.149Z,31.02
2022-08-04T13:34:53.568Z,31.06
2022-08-04T13:37:26.052Z,31.15
2022-08-04T13:39:56.705Z,31.10
2022-08-04T13:42:26.917Z,30.97
2022-08-04T13:45:02.131Z,30.93
2022-08-04T13:47:34.012Z,31.03
2022-08-04T13:50:16.055Z,31.13
2022-08-04T13:52:44.894Z,31.06
2022-08-04T13:55:21.733Z,31.02
2022-08-04T13:57:53.940Z,31.08
2022-08-04T14:00:29.128Z,31.03
2022-08-04T14:03:03.340Z,30.89
2022-08-04T14:05:58.905Z,30.89
2022-08-04T14:08:25.940Z,30.89
2022-08-04T14:10:57.889Z,30.82
2022-08-04T14:13:41.444Z,30.71
2022-08-04T14:16:19.455Z,30.78
2022-08-04T14:18:47.891Z,30.88
2022-08-04T14:21:17.484Z,31.04
2022-08-04T14:23:49.163Z,30.89
2022-08-04T14:26:32.455Z,30.69
2022-08-04T14:29:27.025Z,30.56
2022-08-04T14:32:05.546Z,30.42
2022-08-04T14:34:41.369Z,30.33
2022-08-04T14:37:16.267Z,30.27
2022-08-04T14:40:17.256Z,30.19
2022-08-04T14:42:43.380Z,30.12
2022-08-04T14:45:12.146Z,30.12
2022-08-04T14:47:52.491Z,30.02
2022-08-04T14:50:22.796Z,29.98
2022-08-04T14:52:50.811Z,29.90
2022-08-04T14:55:21.471Z,29.91
2022-08-04T14:58:34.496Z,29.87
2022-08-04T15:00:38.596Z,29.73
2022-08-04T15:03:09.560Z,29.77
2022-08-04T15:06:00.814Z,29.74
2022-08-04T15:08:29.224Z,29.71
2022-08-04T15:11:02.449Z,29.65
2022-08-04T15:13:30.503Z,29.62
2022-08-04T15:16:06.667Z,29.61
2022-08-04T15:18:39.166Z,29.50
2022-08-04T15:21:07.812Z,29.51
2022-08-04T15:23:39.655Z,29.49
2022-08-04T15:26:12.441Z,29.44
2022-08-04T15:28:43.358Z,29.46
2022-08-04T15:32:08.015Z,29.41
2022-08-04T15:34:02.169Z,29.33
2022-08-04T15:36:38.965Z,29.27
2022-08-04T15:39:18.479Z,29.26
2022-08-04T15:41:57.414Z,29.21
2022-08-04T15:45:05.197Z,29.13
2022-08-04T15:47:33.320Z,29.10
2022-08-04T15:50:10.387Z,28.99
2022-08-04T15:53:10.675Z,28.99
2022-08-04T15:55:42.154Z,28.94
2022-08-04T15:58:12.217Z,28.93
2022-08-04T16:01:13.346Z,28.93
2022-08-04T16:04:00.402Z,28.86
2022-08-04T16:06:45.727Z,28.91
2022-08-04T16:09:46.251Z,28.89
2022-08-04T16:12:54.208Z,28.85
2022-08-04T16:15:40.320Z,28.79
2022-08-04T16:18:14.160Z,28.77
2022-08-04T16:20:57.572Z,28.68
2022-08-04T16:24:02.333Z,28.74
2022-08-04T16:26:56.434Z,28.69
2022-08-04T16:29:38.902Z,28.59
2022-08-04T16:32:26.491Z,28.66
2022-08-04T16:34:59.781Z,28.65
2022-08-04T16:37:35.603Z,28.62
2022-08-04T16:40:36.594Z,28.61
2022-08-04T16:43:08.638Z,28.48
2022-08-04T16:45:55.174Z,28.57
2022-08-04T16:48:27.205Z,28.53
2022-08-04T16:51:05.007Z,28.50
2022-08-04T16:53:53.433Z,28.46
2022-08-04T16:56:35.295Z,28.41
2022-08-04T16:59:08.476Z,28.33
2022-08-04T17:01:37.502Z,28.15
2022-08-04T17:04:06.781Z,28.30
2022-08-04T17:06:39.648Z,28.29
2022-08-04T17:09:11.011Z,28.21
2022-08-04T17:11:40.784Z,28.18
2022-08-04T17:14:09.034Z,28.18
2022-08-04T17:16:39.218Z,28.14
2022-08-04T17:19:25.283Z,28.15
2022-08-04T17:22:02.815Z,28.14
2022-08-04T17:24:33.617Z,28.32
2022-08-04T17:27:04.392Z,28.43
2022-08-04T17:29:51.441Z,28.55
2022-08-04T17:32:22.661Z,28.65
2022-08-04T17:34:52.060Z,28.72
2022-08-04T17:40:14.334Z,28.75
2022-08-04T17:42:47.908Z,28.56
2022-08-04T17:48:09.954Z,28.58
2022-08-04T17:50:43.322Z,28.52
2022-08-04T17:53:12.986Z,28.42
2022-08-04T17:55:47.031Z,28.49
2022-08-04T17:58:21.573Z,28.46
2022-08-04T18:03:53.482Z,28.32
2022-08-04T18:06:22.737Z,28.39
2022-08-04T18:11:41.674Z,28.30
2022-08-04T18:14:11.711Z,28.30
2022-08-04T18:16:46.153Z,28.28
2022-08-04T18:19:15.856Z,28.24
2022-08-04T18:22:00.094Z,28.19
2022-08-04T18:24:34.742Z,28.15
2022-08-04T18:27:20.781Z,28.13
2022-08-04T18:30:32.571Z,28.11
2022-08-04T18:32:47.151Z,28.08
2022-08-04T18:36:31.440Z,28.00
2022-08-04T18:38:22.608Z,27.96
2022-08-04T18:40:52.967Z,27.94
2022-08-04T18:43:28.699Z,27.88
2022-08-04T18:45:59.909Z,27.84
2022-08-04T18:48:36.075Z,27.82
2022-08-04T18:51:10.059Z,27.75
2022-08-04T18:53:58.702Z,27.72
2022-08-04T18:56:29.133Z,27.68
2022-08-04T18:58:59.785Z,27.62
2022-08-04T19:02:12.303Z,27.58
2022-08-04T19:04:33.630Z,27.46
2022-08-04T19:07:29.507Z,27.46
2022-08-04T19:09:53.999Z,27.44
2022-08-04T19:12:26.803Z,27.40
2022-08-04T19:15:18.994Z,27.38
2022-08-04T19:17:54.117Z,27.36
2022-08-04T19:20:26.563Z,27.30
2022-08-04T19:24:28.361Z,27.27
2022-08-04T19:26:01.262Z,27.19
2022-08-04T19:28:34.356Z,27.19
2022-08-04T19:31:04.568Z,27.16
2022-08-04T19:33:59.136Z,27.06
2022-08-04T19:36:27.872Z,27.10
2022-08-04T19:38:57.352Z,27.06
2022-08-04T19:41:26.791Z,27.00
2022-08-04T19:43:55.211Z,26.98
2022-08-04T19:46:24.710Z,26.99
2022-08-04T19:48:59.797Z,26.97
2022-08-04T19:51:29.821Z,26.92
2022-08-04T19:54:02.758Z,26.89
2022-08-04T19:56:39.906Z,26.85
2022-08-04T19:59:09.116Z,26.80
2022-08-04T20:01:44.856Z,26.79
2022-08-04T20:04:15.349Z,26.75
2022-08-04T20:06:43.519Z,26.71
2022-08-04T20:09:24.449Z,26.69
2022-08-04T20:11:54.326Z,26.68
2022-08-04T20:14:32.795Z,26.67
2022-08-04T20:17:02.704Z,26.65
2022-08-04T20:19:31.867Z,26.62
2022-08-04T20:22:02.690Z,26.62
2022-08-04T20:24:38.073Z,26.51
2022-08-04T20:27:14.648Z,26.55
2022-08-04T20:29:48.642Z,26.53
2022-08-04T20:32:20.067Z,26.51
2022-08-04T20:34:52.209Z,26.49
2022-08-04T20:37:22.961Z,26.41
2022-08-04T20:39:55.356Z,26.45
2022-08-04T20:42:27.520Z,26.41
2022-08-04T20:45:01.856Z,26.40
2022-08-04T20:47:35.126Z,26.39
2022-08-04T20:50:08.659Z,26.39
2022-08-04T20:52:37.835Z,26.33
2022-08-04T20:55:07.190Z,26.29
2022-08-04T20:57:47.880Z,26.24
2022-08-04T21:00:17.531Z,26.11
2022-08-04T21:02:54.505Z,26.16
2022-08-04T21:05:24.303Z,26.12
2022-08-04T21:07:56.590Z,26.08
2022-08-04T21:10:24.870Z,26.07
2022-08-04T21:12:54.099Z,26.06
2022-08-04T21:15:25.575Z,26.05
2022-08-04T21:20:43.947Z,26.03
2022-08-04T21:23:11.788Z,26.04
2022-08-04T21:25:43.450Z,26.07
2022-08-04T21:28:12.018Z,26.08
2022-08-04T21:30:52.931Z,26.08
2022-08-04T21:33:50.044Z,26.06
2022-08-04T21:36:19.567Z,25.91
2022-08-04T21:38:51.540Z,26.04
2022-08-04T21:41:54.569Z,26.06
2022-08-04T21:44:24.153Z,25.95
2022-08-04T21:46:55.458Z,26.05
2022-08-04T21:49:23.420Z,26.06
2022-08-04T21:52:00.444Z,26.07
2022-08-04T21:54:29.237Z,26.04
2022-08-04T21:56:56.987Z,26.01
2022-08-04T21:59:30.789Z,26.02
2022-08-04T22:02:01.009Z,26.01
2022-08-04T22:04:29.569Z,26.00
2022-08-04T22:07:03.301Z,25.99
2022-08-04T22:09:40.871Z,25.97
2022-08-04T22:12:10.365Z,25.96
2022-08-04T22:14:40.490Z,25.93
2022-08-04T22:17:13.906Z,25.94
2022-08-04T22:19:56.177Z,25.94
2022-08-04T22:22:29.061Z,25.97
2022-08-04T22:25:01.862Z,25.85
2022-08-04T22:27:55.053Z,25.91
2022-08-04T22:30:24.222Z,25.81
2022-08-04T22:32:58.540Z,25.84
2022-08-04T22:35:42.780Z,25.83
2022-08-04T22:38:25.428Z,25.82
2022-08-04T22:41:01.963Z,25.78
2022-08-04T22:43:32.856Z,25.75
2022-08-04T22:46:05.416Z,25.75
2022-08-04T22:48:35.469Z,25.68
2022-08-04T22:51:03.816Z,25.60
2022-08-04T22:53:33.199Z,25.49
2022-08-04T22:56:09.988Z,25.35
2022-08-04T22:58:40.794Z,25.26
2022-08-04T23:01:15.119Z,25.15
2022-08-04T23:03:51.219Z,25.06
2022-08-04T23:06:24.948Z,24.86
2022-08-04T23:08:54.624Z,24.96
2022-08-04T23:11:22.438Z,24.91
2022-08-04T23:13:50.410Z,24.88
2022-08-04T23:16:19.059Z,24.90
2022-08-04T23:18:48.289Z,24.86
2022-08-04T23:21:17.444Z,24.86
2022-08-04T23:24:00.725Z,24.90
2022-08-04T23:26:32.139Z,24.92
2022-08-04T23:29:03.709Z,24.84
2022-08-04T23:31:40.797Z,24.69
2022-08-04T23:34:12.277Z,24.77
2022-08-04T23:36:40.839Z,24.69
2022-08-04T23:39:10.346Z,24.59
2022-08-04T23:41:51.404Z,24.69
2022-08-04T23:44:24.758Z,24.68
2022-08-04T23:46:59.154Z,24.56
2022-08-04T23:49:40.536Z,24.70
2022-08-04T23:52:23.430Z,24.64
2022-08-04T23:54:58.776Z,24.62
2022-08-04T23:57:31.358Z,24.63
